sensor_id;sensor_type;location;lat;lon;timestamp;temperature;humidity
16515;DHT22;8370;52.556;7.970;2023-09-12T00:00:51;21.30;99.90
16515;DHT22;8370;52.556;7.970;2023-09-12T00:03:20;21.40;99.90
16515;DHT22;8370;52.556;7.970;2023-09-12T00:05:53;21.30;99.90
16515;DHT22;8370;52.556;7.970;2023-09-12T00:08:18;21.20;99.90
16515;DHT22;8370;52.556;7.970;2023-09-12T00:10:44;21.30;99.90
16515;DHT22;8370;52.556;7.970;2023-09-12T00:13:09;21.20;99.90
16515;DHT22;8370;52.556;7.970;2023-09-12T00:15:35;21.10;99.90
16515;DHT22;8370;52.556;7.970;2023-09-12T00:18:00;21.10;99.90
16515;DHT22;8370;52.556;7.970;2023-09-12T00:20:26;21.10;99.90
16515;DHT22;8370;52.556;7.970;2023-09-12T00:22:51;21.00;99.90
16515;DHT22;8370;52.556;7.970;2023-09-12T00:25:18;21.00;99.90
16515;DHT22;8370;52.556;7.970;2023-09-12T00:27:43;21.00;99.90
16515;DHT22;8370;52.556;7.970;2023-09-12T00:30:09;21.00;99.90
16515;DHT22;8370;52.556;7.970;2023-09-12T00:32:35;21.00;99.90
16515;DHT22;8370;52.556;7.970;2023-09-12T00:35:00;21.10;99.90
16515;DHT22;8370;52.556;7.970;2023-09-12T00:37:25;21.00;99.90
16515;DHT22;8370;52.556;7.970;2023-09-12T00:39:51;21.10;99.90
16515;DHT22;8370;52.556;7.970;2023-09-12T00:42:16;21.10;99.90
16515;DHT22;8370;52.556;7.970;2023-09-12T00:44:42;21.10;99.90
16515;DHT22;8370;52.556;7.970;2023-09-12T00:47:07;21.10;99.90
16515;DHT22;8370;52.556;7.970;2023-09-12T00:49:33;21.10;99.90
16515;DHT22;8370;52.556;7.970;2023-09-12T00:51:59;21.00;99.90
16515;DHT22;8370;52.556;7.970;2023-09-12T00:54:27;21.10;99.90
16515;DHT22;8370;52.556;7.970;2023-09-12T00:56:52;21.00;99.90
16515;DHT22;8370;52.556;7.970;2023-09-12T00:59:18;21.00;99.90
16515;DHT22;8370;52.556;7.970;2023-09-12T01:01:43;21.00;99.90
16515;DHT22;8370;52.556;7.970;2023-09-12T01:04:09;21.00;99.90
16515;DHT22;8370;52.556;7.970;2023-09-12T01:06:35;21.00;99.90
16515;DHT22;8370;52.556;7.970;2023-09-12T01:09:02;21.00;99.90
16515;DHT22;8370;52.556;7.970;2023-09-12T01:11:27;21.00;99.90
16515;DHT22;8370;52.556;7.970;2023-09-12T01:13:53;21.00;99.90
16515;DHT22;8370;52.556;7.970;2023-09-12T01:16:19;21.00;99.90
16515;DHT22;8370;52.556;7.970;2023-09-12T01:18:44;21.00;99.90
16515;DHT22;8370;52.556;7.970;2023-09-12T01:21:17;21.00;99.90
16515;DHT22;8370;52.556;7.970;2023-09-12T01:29:08;20.90;99.90
16515;DHT22;8370;52.556;7.970;2023-09-12T01:31:34;20.90;99.90
16515;DHT22;8370;52.556;7.970;2023-09-12T01:34:09;20.90;99.90
16515;DHT22;8370;52.556;7.970;2023-09-12T01:36:34;20.90;99.90
16515;DHT22;8370;52.556;7.970;2023-09-12T01:39:00;20.80;99.90
16515;DHT22;8370;52.556;7.970;2023-09-12T01:41:25;20.90;99.90
16515;DHT22;8370;52.556;7.970;2023-09-12T01:43:51;20.80;99.90
16515;DHT22;8370;52.556;7.970;2023-09-12T01:46:17;20.80;99.90
16515;DHT22;8370;52.556;7.970;2023-09-12T01:48:43;20.70;99.90
16515;DHT22;8370;52.556;7.970;2023-09-12T01:51:09;20.70;99.90
16515;DHT22;8370;52.556;7.970;2023-09-12T01:53:34;20.70;99.90
16515;DHT22;8370;52.556;7.970;2023-09-12T01:56:01;20.80;99.90
16515;DHT22;8370;52.556;7.970;2023-09-12T01:58:26;20.80;99.90
16515;DHT22;8370;52.556;7.970;2023-09-12T02:00:52;20.80;99.90
16515;DHT22;8370;52.556;7.970;2023-09-12T02:03:17;20.80;99.90
16515;DHT22;8370;52.556;7.970;2023-09-12T02:05:43;20.80;99.90
16515;DHT22;8370;52.556;7.970;2023-09-12T02:08:09;20.80;99.90
16515;DHT22;8370;52.556;7.970;2023-09-12T02:10:34;20.70;99.90
16515;DHT22;8370;52.556;7.970;2023-09-12T02:13:00;20.70;99.90
16515;DHT22;8370;52.556;7.970;2023-09-12T02:15:25;20.70;99.90
16515;DHT22;8370;52.556;7.970;2023-09-12T02:17:51;20.70;99.90
16515;DHT22;8370;52.556;7.970;2023-09-12T02:20:17;20.70;99.90
16515;DHT22;8370;52.556;7.970;2023-09-12T02:22:42;20.70;99.90
16515;DHT22;8370;52.556;7.970;2023-09-12T02:25:08;20.70;99.90
16515;DHT22;8370;52.556;7.970;2023-09-12T02:27:33;20.60;99.90
16515;DHT22;8370;52.556;7.970;2023-09-12T02:29:59;20.60;99.90
16515;DHT22;8370;52.556;7.970;2023-09-12T02:32:24;20.60;99.90
16515;DHT22;8370;52.556;7.970;2023-09-12T02:34:50;20.60;99.90
16515;DHT22;8370;52.556;7.970;2023-09-12T02:37:15;20.50;99.90
16515;DHT22;8370;52.556;7.970;2023-09-12T02:39:41;20.50;99.90
16515;DHT22;8370;52.556;7.970;2023-09-12T02:42:06;20.50;99.90
16515;DHT22;8370;52.556;7.970;2023-09-12T02:44:32;20.50;99.90
16515;DHT22;8370;52.556;7.970;2023-09-12T02:46:57;20.40;99.90
16515;DHT22;8370;52.556;7.970;2023-09-12T02:49:23;20.40;99.90
16515;DHT22;8370;52.556;7.970;2023-09-12T02:51:48;20.30;99.90
16515;DHT22;8370;52.556;7.970;2023-09-12T02:54:14;20.30;99.90
16515;DHT22;8370;52.556;7.970;2023-09-12T02:56:39;20.30;99.90
16515;DHT22;8370;52.556;7.970;2023-09-12T02:59:04;20.20;99.90
16515;DHT22;8370;52.556;7.970;2023-09-12T03:01:30;20.20;99.90
16515;DHT22;8370;52.556;7.970;2023-09-12T03:03:57;20.20;99.90
16515;DHT22;8370;52.556;7.970;2023-09-12T03:06:22;20.20;99.90
16515;DHT22;8370;52.556;7.970;2023-09-12T03:08:48;20.10;99.90
16515;DHT22;8370;52.556;7.970;2023-09-12T03:11:13;20.10;99.90
16515;DHT22;8370;52.556;7.970;2023-09-12T03:13:39;20.10;99.90
16515;DHT22;8370;52.556;7.970;2023-09-12T03:16:05;20.20;99.90
16515;DHT22;8370;52.556;7.970;2023-09-12T03:18:34;20.10;99.90
16515;DHT22;8370;52.556;7.970;2023-09-12T03:21:00;20.10;99.90
16515;DHT22;8370;52.556;7.970;2023-09-12T03:23:25;20.10;99.90
16515;DHT22;8370;52.556;7.970;2023-09-12T03:25:51;20.10;99.90
16515;DHT22;8370;52.556;7.970;2023-09-12T03:28:16;20.10;99.90
16515;DHT22;8370;52.556;7.970;2023-09-12T03:30:42;20.10;99.90
16515;DHT22;8370;52.556;7.970;2023-09-12T03:33:07;20.10;99.90
16515;DHT22;8370;52.556;7.970;2023-09-12T03:35:32;20.00;99.90
16515;DHT22;8370;52.556;7.970;2023-09-12T03:37:58;20.00;99.90
16515;DHT22;8370;52.556;7.970;2023-09-12T03:40:23;20.00;99.90
16515;DHT22;8370;52.556;7.970;2023-09-12T03:42:49;20.00;99.90
16515;DHT22;8370;52.556;7.970;2023-09-12T03:45:14;20.00;99.90
16515;DHT22;8370;52.556;7.970;2023-09-12T03:47:40;20.00;99.90
16515;DHT22;8370;52.556;7.970;2023-09-12T03:50:05;20.00;99.90
16515;DHT22;8370;52.556;7.970;2023-09-12T03:52:31;20.00;99.90
16515;DHT22;8370;52.556;7.970;2023-09-12T03:54:56;20.00;99.90
16515;DHT22;8370;52.556;7.970;2023-09-12T03:57:22;19.90;99.90
16515;DHT22;8370;52.556;7.970;2023-09-12T03:59:47;19.90;99.90
16515;DHT22;8370;52.556;7.970;2023-09-12T04:02:13;19.90;99.90
16515;DHT22;8370;52.556;7.970;2023-09-12T04:04:39;19.90;99.90
16515;DHT22;8370;52.556;7.970;2023-09-12T04:07:04;19.80;99.90
16515;DHT22;8370;52.556;7.970;2023-09-12T04:09:30;19.80;99.90
16515;DHT22;8370;52.556;7.970;2023-09-12T04:11:56;19.80;99.90
16515;DHT22;8370;52.556;7.970;2023-09-12T04:14:21;19.80;99.90
16515;DHT22;8370;52.556;7.970;2023-09-12T04:16:46;19.80;99.90
16515;DHT22;8370;52.556;7.970;2023-09-12T04:19:13;19.70;99.90
16515;DHT22;8370;52.556;7.970;2023-09-12T04:21:39;19.70;99.90
16515;DHT22;8370;52.556;7.970;2023-09-12T04:24:04;19.70;99.90
16515;DHT22;8370;52.556;7.970;2023-09-12T04:26:30;19.70;99.90
16515;DHT22;8370;52.556;7.970;2023-09-12T04:28:55;19.70;99.90
16515;DHT22;8370;52.556;7.970;2023-09-12T04:31:21;19.80;99.90
16515;DHT22;8370;52.556;7.970;2023-09-12T04:33:46;19.80;99.90
16515;DHT22;8370;52.556;7.970;2023-09-12T04:36:12;19.80;99.90
16515;DHT22;8370;52.556;7.970;2023-09-12T04:38:37;19.80;99.90
16515;DHT22;8370;52.556;7.970;2023-09-12T04:41:03;19.80;99.90
16515;DHT22;8370;52.556;7.970;2023-09-12T04:43:30;19.80;99.90
16515;DHT22;8370;52.556;7.970;2023-09-12T04:45:56;19.70;99.90
16515;DHT22;8370;52.556;7.970;2023-09-12T04:48:21;19.80;99.90
16515;DHT22;8370;52.556;7.970;2023-09-12T04:50:47;19.80;99.90
16515;DHT22;8370;52.556;7.970;2023-09-12T04:53:13;19.80;99.90
16515;DHT22;8370;52.556;7.970;2023-09-12T04:55:38;19.80;99.90
16515;DHT22;8370;52.556;7.970;2023-09-12T04:58:04;19.70;99.90
16515;DHT22;8370;52.556;7.970;2023-09-12T05:00:30;19.70;99.90
16515;DHT22;8370;52.556;7.970;2023-09-12T05:02:55;19.60;99.90
16515;DHT22;8370;52.556;7.970;2023-09-12T05:05:21;19.60;99.90
16515;DHT22;8370;52.556;7.970;2023-09-12T05:07:46;19.70;99.90
16515;DHT22;8370;52.556;7.970;2023-09-12T05:10:12;19.70;99.90
16515;DHT22;8370;52.556;7.970;2023-09-12T05:12:37;19.70;99.90
16515;DHT22;8370;52.556;7.970;2023-09-12T05:15:03;19.70;99.90
16515;DHT22;8370;52.556;7.970;2023-09-12T05:17:28;19.70;99.90
16515;DHT22;8370;52.556;7.970;2023-09-12T05:19:54;19.70;99.90
16515;DHT22;8370;52.556;7.970;2023-09-12T05:22:19;19.70;99.90
16515;DHT22;8370;52.556;7.970;2023-09-12T05:24:45;19.60;99.90
16515;DHT22;8370;52.556;7.970;2023-09-12T05:27:11;19.60;99.90
16515;DHT22;8370;52.556;7.970;2023-09-12T05:29:37;19.60;99.90
16515;DHT22;8370;52.556;7.970;2023-09-12T05:32:02;19.60;99.90
16515;DHT22;8370;52.556;7.970;2023-09-12T05:34:28;19.60;99.90
16515;DHT22;8370;52.556;7.970;2023-09-12T05:36:54;19.60;99.90
16515;DHT22;8370;52.556;7.970;2023-09-12T05:39:19;19.50;99.90
16515;DHT22;8370;52.556;7.970;2023-09-12T05:41:45;19.50;99.90
16515;DHT22;8370;52.556;7.970;2023-09-12T05:44:10;19.50;99.90
16515;DHT22;8370;52.556;7.970;2023-09-12T05:46:38;19.50;99.90
16515;DHT22;8370;52.556;7.970;2023-09-12T05:49:03;19.50;99.90
16515;DHT22;8370;52.556;7.970;2023-09-12T05:51:29;19.50;99.90
16515;DHT22;8370;52.556;7.970;2023-09-12T05:53:54;19.50;99.90
16515;DHT22;8370;52.556;7.970;2023-09-12T05:56:20;19.50;99.90
16515;DHT22;8370;52.556;7.970;2023-09-12T05:58:46;19.50;99.90
16515;DHT22;8370;52.556;7.970;2023-09-12T06:01:11;19.50;99.90
16515;DHT22;8370;52.556;7.970;2023-09-12T06:03:37;19.50;99.90
16515;DHT22;8370;52.556;7.970;2023-09-12T06:06:02;19.50;99.90
16515;DHT22;8370;52.556;7.970;2023-09-12T06:08:28;19.50;99.90
16515;DHT22;8370;52.556;7.970;2023-09-12T06:10:53;19.40;99.90
16515;DHT22;8370;52.556;7.970;2023-09-12T06:13:20;19.40;99.90
16515;DHT22;8370;52.556;7.970;2023-09-12T06:15:46;19.40;99.90
16515;DHT22;8370;52.556;7.970;2023-09-12T06:18:11;19.30;99.90
16515;DHT22;8370;52.556;7.970;2023-09-12T06:20:37;19.30;99.90
16515;DHT22;8370;52.556;7.970;2023-09-12T06:23:03;19.30;99.90
16515;DHT22;8370;52.556;7.970;2023-09-12T06:25:29;19.30;99.90
16515;DHT22;8370;52.556;7.970;2023-09-12T06:27:54;19.30;99.90
16515;DHT22;8370;52.556;7.970;2023-09-12T06:30:20;19.30;99.90
16515;DHT22;8370;52.556;7.970;2023-09-12T06:32:45;19.30;99.90
16515;DHT22;8370;52.556;7.970;2023-09-12T06:35:11;19.30;99.90
16515;DHT22;8370;52.556;7.970;2023-09-12T06:37:37;19.30;99.90
16515;DHT22;8370;52.556;7.970;2023-09-12T06:40:03;19.40;99.90
16515;DHT22;8370;52.556;7.970;2023-09-12T06:42:29;19.30;99.90
16515;DHT22;8370;52.556;7.970;2023-09-12T06:44:54;19.30;99.90
16515;DHT22;8370;52.556;7.970;2023-09-12T06:47:19;19.40;99.90
16515;DHT22;8370;52.556;7.970;2023-09-12T06:49:45;19.40;99.90
16515;DHT22;8370;52.556;7.970;2023-09-12T06:52:10;19.40;99.90
16515;DHT22;8370;52.556;7.970;2023-09-12T06:54:36;19.40;99.90
16515;DHT22;8370;52.556;7.970;2023-09-12T06:57:01;19.40;99.90
16515;DHT22;8370;52.556;7.970;2023-09-12T06:59:27;19.50;99.90
16515;DHT22;8370;52.556;7.970;2023-09-12T07:01:52;19.50;99.90
16515;DHT22;8370;52.556;7.970;2023-09-12T07:04:18;19.50;99.90
16515;DHT22;8370;52.556;7.970;2023-09-12T07:06:43;19.60;99.90
16515;DHT22;8370;52.556;7.970;2023-09-12T07:09:09;19.60;99.90
16515;DHT22;8370;52.556;7.970;2023-09-12T07:11:36;19.70;99.90
16515;DHT22;8370;52.556;7.970;2023-09-12T07:14:02;19.70;99.90
16515;DHT22;8370;52.556;7.970;2023-09-12T07:16:30;19.80;99.90
16515;DHT22;8370;52.556;7.970;2023-09-12T07:18:55;19.80;99.90
16515;DHT22;8370;52.556;7.970;2023-09-12T07:21:21;19.80;99.90
16515;DHT22;8370;52.556;7.970;2023-09-12T07:23:47;19.80;99.90
16515;DHT22;8370;52.556;7.970;2023-09-12T07:26:13;19.80;99.90
16515;DHT22;8370;52.556;7.970;2023-09-12T07:28:39;19.80;99.90
16515;DHT22;8370;52.556;7.970;2023-09-12T07:31:04;19.70;99.90
16515;DHT22;8370;52.556;7.970;2023-09-12T07:33:30;19.70;99.90
16515;DHT22;8370;52.556;7.970;2023-09-12T07:35:55;19.70;99.90
16515;DHT22;8370;52.556;7.970;2023-09-12T07:38:21;19.70;99.90
16515;DHT22;8370;52.556;7.970;2023-09-12T07:40:47;19.60;99.90
16515;DHT22;8370;52.556;7.970;2023-09-12T07:43:12;19.60;99.90
16515;DHT22;8370;52.556;7.970;2023-09-12T07:45:38;19.60;99.90
16515;DHT22;8370;52.556;7.970;2023-09-12T07:48:07;19.50;99.90
16515;DHT22;8370;52.556;7.970;2023-09-12T07:50:32;19.50;99.90
16515;DHT22;8370;52.556;7.970;2023-09-12T07:52:58;19.40;99.90
16515;DHT22;8370;52.556;7.970;2023-09-12T07:55:23;19.50;99.90
16515;DHT22;8370;52.556;7.970;2023-09-12T07:57:48;19.40;99.90
16515;DHT22;8370;52.556;7.970;2023-09-12T08:00:14;19.40;99.90
16515;DHT22;8370;52.556;7.970;2023-09-12T08:02:39;19.40;99.90
16515;DHT22;8370;52.556;7.970;2023-09-12T08:05:05;19.40;99.90
16515;DHT22;8370;52.556;7.970;2023-09-12T08:07:31;19.40;99.90
16515;DHT22;8370;52.556;7.970;2023-09-12T08:09:57;19.40;99.90
16515;DHT22;8370;52.556;7.970;2023-09-12T08:12:23;19.30;99.90
16515;DHT22;8370;52.556;7.970;2023-09-12T08:14:49;19.30;99.90
16515;DHT22;8370;52.556;7.970;2023-09-12T08:17:14;19.30;99.90
16515;DHT22;8370;52.556;7.970;2023-09-12T08:19:40;19.30;99.90
16515;DHT22;8370;52.556;7.970;2023-09-12T08:22:06;19.30;99.90
16515;DHT22;8370;52.556;7.970;2023-09-12T08:24:32;19.30;99.90
16515;DHT22;8370;52.556;7.970;2023-09-12T08:26:58;19.40;99.90
16515;DHT22;8370;52.556;7.970;2023-09-12T08:29:23;19.40;99.90
16515;DHT22;8370;52.556;7.970;2023-09-12T08:31:49;19.40;99.90
16515;DHT22;8370;52.556;7.970;2023-09-12T08:34:15;19.50;99.90
16515;DHT22;8370;52.556;7.970;2023-09-12T08:36:40;19.50;99.90
16515;DHT22;8370;52.556;7.970;2023-09-12T08:39:06;19.60;99.90
16515;DHT22;8370;52.556;7.970;2023-09-12T08:41:34;19.60;99.90
16515;DHT22;8370;52.556;7.970;2023-09-12T08:44:00;19.60;99.90
16515;DHT22;8370;52.556;7.970;2023-09-12T08:46:26;19.60;99.90
16515;DHT22;8370;52.556;7.970;2023-09-12T08:48:52;19.50;99.90
16515;DHT22;8370;52.556;7.970;2023-09-12T08:51:20;19.60;99.90
16515;DHT22;8370;52.556;7.970;2023-09-12T08:53:47;19.50;99.90
16515;DHT22;8370;52.556;7.970;2023-09-12T08:56:12;19.50;99.90
16515;DHT22;8370;52.556;7.970;2023-09-12T08:58:38;19.40;99.90
16515;DHT22;8370;52.556;7.970;2023-09-12T09:01:03;19.40;99.90
16515;DHT22;8370;52.556;7.970;2023-09-12T09:03:31;19.30;99.90
16515;DHT22;8370;52.556;7.970;2023-09-12T09:05:56;19.30;99.90
16515;DHT22;8370;52.556;7.970;2023-09-12T09:08:22;19.20;99.90
16515;DHT22;8370;52.556;7.970;2023-09-12T09:10:58;19.20;99.90
16515;DHT22;8370;52.556;7.970;2023-09-12T09:13:24;19.20;99.90
16515;DHT22;8370;52.556;7.970;2023-09-12T09:15:49;19.20;99.90
16515;DHT22;8370;52.556;7.970;2023-09-12T09:18:48;19.20;99.90
16515;DHT22;8370;52.556;7.970;2023-09-12T09:21:16;19.30;99.90
16515;DHT22;8370;52.556;7.970;2023-09-12T09:23:45;19.30;99.90
16515;DHT22;8370;52.556;7.970;2023-09-12T09:26:14;19.20;99.90
16515;DHT22;8370;52.556;7.970;2023-09-12T09:28:39;19.20;99.90
16515;DHT22;8370;52.556;7.970;2023-09-12T09:31:09;19.20;99.90
16515;DHT22;8370;52.556;7.970;2023-09-12T09:33:35;19.20;99.90
16515;DHT22;8370;52.556;7.970;2023-09-12T09:36:02;19.20;99.90
16515;DHT22;8370;52.556;7.970;2023-09-12T09:38:28;19.30;99.90
16515;DHT22;8370;52.556;7.970;2023-09-12T09:40:53;19.30;99.90
16515;DHT22;8370;52.556;7.970;2023-09-12T09:43:20;19.40;99.90
16515;DHT22;8370;52.556;7.970;2023-09-12T09:45:45;19.40;99.90
16515;DHT22;8370;52.556;7.970;2023-09-12T09:48:17;19.50;99.90
16515;DHT22;8370;52.556;7.970;2023-09-12T09:50:43;19.50;99.90
16515;DHT22;8370;52.556;7.970;2023-09-12T09:53:08;19.60;99.90
16515;DHT22;8370;52.556;7.970;2023-09-12T09:55:35;19.60;99.90
16515;DHT22;8370;52.556;7.970;2023-09-12T09:58:01;19.60;99.90
16515;DHT22;8370;52.556;7.970;2023-09-12T10:00:27;19.70;99.90
16515;DHT22;8370;52.556;7.970;2023-09-12T10:02:53;19.70;99.90
16515;DHT22;8370;52.556;7.970;2023-09-12T10:05:20;19.70;99.90
16515;DHT22;8370;52.556;7.970;2023-09-12T10:07:48;19.70;99.90
16515;DHT22;8370;52.556;7.970;2023-09-12T10:10:16;19.70;99.90
16515;DHT22;8370;52.556;7.970;2023-09-12T10:12:43;19.70;99.90
16515;DHT22;8370;52.556;7.970;2023-09-12T10:15:10;19.70;99.90
16515;DHT22;8370;52.556;7.970;2023-09-12T10:17:37;19.70;99.90
16515;DHT22;8370;52.556;7.970;2023-09-12T10:20:05;19.70;99.90
16515;DHT22;8370;52.556;7.970;2023-09-12T10:22:43;19.70;99.90
16515;DHT22;8370;52.556;7.970;2023-09-12T10:25:11;19.70;99.90
16515;DHT22;8370;52.556;7.970;2023-09-12T10:27:37;19.70;99.90
16515;DHT22;8370;52.556;7.970;2023-09-12T10:30:03;19.80;99.90
16515;DHT22;8370;52.556;7.970;2023-09-12T10:32:30;20.00;99.90
16515;DHT22;8370;52.556;7.970;2023-09-12T10:34:57;20.30;99.90
16515;DHT22;8370;52.556;7.970;2023-09-12T10:37:23;20.50;99.90
16515;DHT22;8370;52.556;7.970;2023-09-12T10:39:50;20.70;99.90
16515;DHT22;8370;52.556;7.970;2023-09-12T10:42:18;20.90;99.90
16515;DHT22;8370;52.556;7.970;2023-09-12T10:44:44;21.10;99.90
16515;DHT22;8370;52.556;7.970;2023-09-12T10:47:11;21.30;99.90
16515;DHT22;8370;52.556;7.970;2023-09-12T10:49:37;21.40;99.90
16515;DHT22;8370;52.556;7.970;2023-09-12T10:52:02;21.50;99.90
16515;DHT22;8370;52.556;7.970;2023-09-12T10:54:40;21.60;99.90
16515;DHT22;8370;52.556;7.970;2023-09-12T10:57:06;21.60;99.90
16515;DHT22;8370;52.556;7.970;2023-09-12T10:59:32;21.50;99.90
16515;DHT22;8370;52.556;7.970;2023-09-12T11:04:44;21.40;99.90
16515;DHT22;8370;52.556;7.970;2023-09-12T11:12:38;21.60;99.90
16515;DHT22;8370;52.556;7.970;2023-09-12T11:15:04;22.00;99.90
16515;DHT22;8370;52.556;7.970;2023-09-12T11:17:31;22.30;99.90
16515;DHT22;8370;52.556;7.970;2023-09-12T11:20:02;22.50;99.90
16515;DHT22;8370;52.556;7.970;2023-09-12T11:22:34;22.50;99.90
16515;DHT22;8370;52.556;7.970;2023-09-12T11:25:03;22.50;99.90
16515;DHT22;8370;52.556;7.970;2023-09-12T11:30:14;22.30;99.90
16515;DHT22;8370;52.556;7.970;2023-09-12T11:32:40;22.20;99.90
16515;DHT22;8370;52.556;7.970;2023-09-12T11:35:09;22.10;99.90
16515;DHT22;8370;52.556;7.970;2023-09-12T11:37:35;22.00;99.90
16515;DHT22;8370;52.556;7.970;2023-09-12T11:42:39;22.20;99.90
16515;DHT22;8370;52.556;7.970;2023-09-12T11:45:09;22.40;99.90
16515;DHT22;8370;52.556;7.970;2023-09-12T11:47:34;22.50;99.90
16515;DHT22;8370;52.556;7.970;2023-09-12T11:50:00;22.50;99.90
16515;DHT22;8370;52.556;7.970;2023-09-12T11:52:26;22.40;99.90
16515;DHT22;8370;52.556;7.970;2023-09-12T11:54:53;22.40;99.90
16515;DHT22;8370;52.556;7.970;2023-09-12T11:57:18;22.40;99.90
16515;DHT22;8370;52.556;7.970;2023-09-12T11:59:44;22.40;99.90
16515;DHT22;8370;52.556;7.970;2023-09-12T12:02:17;22.30;99.90
16515;DHT22;8370;52.556;7.970;2023-09-12T12:04:42;22.20;99.90
16515;DHT22;8370;52.556;7.970;2023-09-12T12:07:10;22.30;99.90
16515;DHT22;8370;52.556;7.970;2023-09-12T12:09:35;22.10;99.90
16515;DHT22;8370;52.556;7.970;2023-09-12T12:12:08;22.70;99.90
16515;DHT22;8370;52.556;7.970;2023-09-12T12:14:34;23.50;99.90
16515;DHT22;8370;52.556;7.970;2023-09-12T12:17:10;24.00;99.90
16515;DHT22;8370;52.556;7.970;2023-09-12T12:19:36;24.40;99.90
16515;DHT22;8370;52.556;7.970;2023-09-12T12:22:04;24.20;99.90
16515;DHT22;8370;52.556;7.970;2023-09-12T12:24:37;23.90;99.90
16515;DHT22;8370;52.556;7.970;2023-09-12T12:27:03;23.60;99.90
16515;DHT22;8370;52.556;7.970;2023-09-12T12:29:29;23.40;99.90
16515;DHT22;8370;52.556;7.970;2023-09-12T12:31:59;23.40;99.90
16515;DHT22;8370;52.556;7.970;2023-09-12T12:34:24;23.40;99.90
16515;DHT22;8370;52.556;7.970;2023-09-12T12:36:50;23.40;99.90
16515;DHT22;8370;52.556;7.970;2023-09-12T12:39:15;23.50;99.90
16515;DHT22;8370;52.556;7.970;2023-09-12T12:41:42;23.50;99.90
16515;DHT22;8370;52.556;7.970;2023-09-12T12:44:07;23.50;99.90
16515;DHT22;8370;52.556;7.970;2023-09-12T12:46:33;23.50;99.90
16515;DHT22;8370;52.556;7.970;2023-09-12T12:48:58;23.40;99.90
16515;DHT22;8370;52.556;7.970;2023-09-12T12:51:24;23.50;99.90
16515;DHT22;8370;52.556;7.970;2023-09-12T12:53:51;23.40;99.90
16515;DHT22;8370;52.556;7.970;2023-09-12T12:56:17;23.40;99.90
16515;DHT22;8370;52.556;7.970;2023-09-12T12:58:47;23.30;99.90
16515;DHT22;8370;52.556;7.970;2023-09-12T13:01:13;23.30;99.90
16515;DHT22;8370;52.556;7.970;2023-09-12T13:03:38;23.40;99.90
16515;DHT22;8370;52.556;7.970;2023-09-12T13:06:05;23.60;99.90
16515;DHT22;8370;52.556;7.970;2023-09-12T13:08:32;23.60;99.90
16515;DHT22;8370;52.556;7.970;2023-09-12T13:11:00;23.60;99.90
16515;DHT22;8370;52.556;7.970;2023-09-12T13:13:26;23.60;99.90
16515;DHT22;8370;52.556;7.970;2023-09-12T13:15:52;23.60;99.90
16515;DHT22;8370;52.556;7.970;2023-09-12T13:18:17;23.70;99.90
16515;DHT22;8370;52.556;7.970;2023-09-12T13:20:43;23.80;99.90
16515;DHT22;8370;52.556;7.970;2023-09-12T13:23:08;23.90;99.90
16515;DHT22;8370;52.556;7.970;2023-09-12T13:25:34;24.00;99.90
16515;DHT22;8370;52.556;7.970;2023-09-12T13:27:59;23.90;99.90
16515;DHT22;8370;52.556;7.970;2023-09-12T13:30:25;24.00;99.90
16515;DHT22;8370;52.556;7.970;2023-09-12T13:32:50;24.00;99.90
16515;DHT22;8370;52.556;7.970;2023-09-12T13:35:16;24.10;99.90
16515;DHT22;8370;52.556;7.970;2023-09-12T13:37:42;24.30;99.90
16515;DHT22;8370;52.556;7.970;2023-09-12T13:40:07;24.30;99.90
16515;DHT22;8370;52.556;7.970;2023-09-12T13:42:34;24.40;99.90
16515;DHT22;8370;52.556;7.970;2023-09-12T13:44:59;24.40;99.90
16515;DHT22;8370;52.556;7.970;2023-09-12T13:47:25;24.30;99.90
16515;DHT22;8370;52.556;7.970;2023-09-12T13:49:51;24.30;99.90
16515;DHT22;8370;52.556;7.970;2023-09-12T13:52:19;24.40;99.90
16515;DHT22;8370;52.556;7.970;2023-09-12T13:54:44;24.40;99.90
16515;DHT22;8370;52.556;7.970;2023-09-12T13:57:10;24.30;99.90
16515;DHT22;8370;52.556;7.970;2023-09-12T13:59:35;24.10;99.90
16515;DHT22;8370;52.556;7.970;2023-09-12T14:02:01;24.20;99.90
16515;DHT22;8370;52.556;7.970;2023-09-12T14:04:26;24.20;99.90
16515;DHT22;8370;52.556;7.970;2023-09-12T14:06:51;24.20;99.90
16515;DHT22;8370;52.556;7.970;2023-09-12T14:09:17;24.20;99.90
16515;DHT22;8370;52.556;7.970;2023-09-12T14:11:42;24.30;99.90
16515;DHT22;8370;52.556;7.970;2023-09-12T14:14:08;24.30;99.90
16515;DHT22;8370;52.556;7.970;2023-09-12T14:16:34;24.30;99.90
16515;DHT22;8370;52.556;7.970;2023-09-12T14:18:59;24.20;99.90
16515;DHT22;8370;52.556;7.970;2023-09-12T14:21:25;24.10;99.90
16515;DHT22;8370;52.556;7.970;2023-09-12T14:23:50;24.10;99.90
16515;DHT22;8370;52.556;7.970;2023-09-12T14:26:15;24.10;99.90
16515;DHT22;8370;52.556;7.970;2023-09-12T14:28:41;24.10;99.90
16515;DHT22;8370;52.556;7.970;2023-09-12T14:31:06;24.10;99.90
16515;DHT22;8370;52.556;7.970;2023-09-12T14:33:38;24.20;99.90
16515;DHT22;8370;52.556;7.970;2023-09-12T14:36:04;24.30;99.90
16515;DHT22;8370;52.556;7.970;2023-09-12T14:38:29;24.40;99.90
16515;DHT22;8370;52.556;7.970;2023-09-12T14:40:55;24.30;99.90
16515;DHT22;8370;52.556;7.970;2023-09-12T14:43:20;24.20;99.90
16515;DHT22;8370;52.556;7.970;2023-09-12T14:45:46;24.30;99.90
16515;DHT22;8370;52.556;7.970;2023-09-12T14:48:12;24.30;99.90
16515;DHT22;8370;52.556;7.970;2023-09-12T14:50:37;24.30;99.90
16515;DHT22;8370;52.556;7.970;2023-09-12T14:53:03;24.10;99.90
16515;DHT22;8370;52.556;7.970;2023-09-12T14:55:29;24.00;99.90
16515;DHT22;8370;52.556;7.970;2023-09-12T14:57:54;23.90;99.90
16515;DHT22;8370;52.556;7.970;2023-09-12T15:00:21;23.80;99.90
16515;DHT22;8370;52.556;7.970;2023-09-12T15:02:47;23.80;99.90
16515;DHT22;8370;52.556;7.970;2023-09-12T15:05:13;23.80;99.90
16515;DHT22;8370;52.556;7.970;2023-09-12T15:07:38;23.80;99.90
16515;DHT22;8370;52.556;7.970;2023-09-12T15:10:04;23.90;99.90
16515;DHT22;8370;52.556;7.970;2023-09-12T15:12:30;23.90;99.90
16515;DHT22;8370;52.556;7.970;2023-09-12T15:14:55;23.90;99.90
16515;DHT22;8370;52.556;7.970;2023-09-12T15:17:21;23.90;99.90
16515;DHT22;8370;52.556;7.970;2023-09-12T15:19:46;23.80;99.90
16515;DHT22;8370;52.556;7.970;2023-09-12T15:22:12;23.80;99.90
16515;DHT22;8370;52.556;7.970;2023-09-12T15:24:39;23.70;99.90
16515;DHT22;8370;52.556;7.970;2023-09-12T15:27:05;23.80;99.90
16515;DHT22;8370;52.556;7.970;2023-09-12T15:29:30;23.70;99.90
16515;DHT22;8370;52.556;7.970;2023-09-12T15:31:56;23.70;99.90
16515;DHT22;8370;52.556;7.970;2023-09-12T15:34:23;23.80;99.90
16515;DHT22;8370;52.556;7.970;2023-09-12T15:36:49;23.70;99.90
16515;DHT22;8370;52.556;7.970;2023-09-12T15:39:14;23.70;99.90
16515;DHT22;8370;52.556;7.970;2023-09-12T15:41:40;23.80;99.90
16515;DHT22;8370;52.556;7.970;2023-09-12T15:44:06;23.90;99.90
16515;DHT22;8370;52.556;7.970;2023-09-12T15:46:32;24.10;99.90
16515;DHT22;8370;52.556;7.970;2023-09-12T15:48:58;24.20;99.90
16515;DHT22;8370;52.556;7.970;2023-09-12T15:51:23;24.40;99.90
16515;DHT22;8370;52.556;7.970;2023-09-12T15:53:49;24.70;99.90
16515;DHT22;8370;52.556;7.970;2023-09-12T15:56:14;25.00;99.90